sensor_id;sensor_type;location;lat;lon;timestamp;P1;durP1;ratioP1;P2;durP2;ratioP2
59442;SDS011;45247;47.466;19.004;2022-11-03T00:01:47;16.45;;;9.60;;
59442;SDS011;45247;47.466;19.004;2022-11-03T00:04:16;21.55;;;11.55;;
59442;SDS011;45247;47.466;19.004;2022-11-03T00:06:46;24.80;;;12.82;;
59442;SDS011;45247;47.466;19.004;2022-11-03T00:09:15;27.23;;;13.10;;
59442;SDS011;45247;47.466;19.004;2022-11-03T00:11:45;17.98;;;11.10;;
59442;SDS011;45247;47.466;19.004;2022-11-03T00:14:14;18.45;;;11.43;;
59442;SDS011;45247;47.466;19.004;2022-11-03T00:16:42;19.35;;;12.13;;
59442;SDS011;45247;47.466;19.004;2022-11-03T00:19:12;18.02;;;11.25;;
59442;SDS011;45247;47.466;19.004;2022-11-03T00:21:43;21.48;;;12.70;;
59442;SDS011;45247;47.466;19.004;2022-11-03T00:24:11;22.20;;;12.43;;
59442;SDS011;45247;47.466;19.004;2022-11-03T00:26:39;21.92;;;11.98;;
59442;SDS011;45247;47.466;19.004;2022-11-03T00:29:08;22.27;;;12.23;;
59442;SDS011;45247;47.466;19.004;2022-11-03T00:31:38;24.73;;;12.75;;
59442;SDS011;45247;47.466;19.004;2022-11-03T00:34:07;24.90;;;13.20;;
59442;SDS011;45247;47.466;19.004;2022-11-03T00:36:38;25.25;;;14.05;;
59442;SDS011;45247;47.466;19.004;2022-11-03T00:39:08;17.93;;;11.37;;
59442;SDS011;45247;47.466;19.004;2022-11-03T00:41:36;25.70;;;12.85;;
59442;SDS011;45247;47.466;19.004;2022-11-03T00:44:05;19.95;;;11.75;;
59442;SDS011;45247;47.466;19.004;2022-11-03T00:46:36;21.20;;;10.93;;
59442;SDS011;45247;47.466;19.004;2022-11-03T00:49:04;21.30;;;12.60;;
59442;SDS011;45247;47.466;19.004;2022-11-03T00:51:32;18.08;;;11.73;;
59442;SDS011;45247;47.466;19.004;2022-11-03T00:54:03;24.17;;;12.13;;
59442;SDS011;45247;47.466;19.004;2022-11-03T00:56:33;18.13;;;10.65;;
59442;SDS011;45247;47.466;19.004;2022-11-03T00:59:03;17.67;;;10.77;;
59442;SDS011;45247;47.466;19.004;2022-11-03T01:01:33;16.00;;;9.48;;
59442;SDS011;45247;47.466;19.004;2022-11-03T01:04:09;19.15;;;9.73;;
59442;SDS011;45247;47.466;19.004;2022-11-03T01:06:56;16.25;;;8.57;;
59442;SDS011;45247;47.466;19.004;2022-11-03T01:09:27;17.80;;;8.52;;
59442;SDS011;45247;47.466;19.004;2022-11-03T01:11:57;16.85;;;7.85;;
59442;SDS011;45247;47.466;19.004;2022-11-03T01:14:28;15.88;;;7.78;;
59442;SDS011;45247;47.466;19.004;2022-11-03T01:16:58;12.40;;;7.43;;
59442;SDS011;45247;47.466;19.004;2022-11-03T01:19:27;14.07;;;5.72;;
59442;SDS011;45247;47.466;19.004;2022-11-03T01:21:55;17.05;;;6.43;;
59442;SDS011;45247;47.466;19.004;2022-11-03T01:24:23;13.82;;;6.22;;
59442;SDS011;45247;47.466;19.004;2022-11-03T01:26:52;12.63;;;6.00;;
59442;SDS011;45247;47.466;19.004;2022-11-03T01:29:20;11.38;;;6.68;;
59442;SDS011;45247;47.466;19.004;2022-11-03T01:31:48;14.15;;;6.20;;
59442;SDS011;45247;47.466;19.004;2022-11-03T01:34:17;14.95;;;5.97;;
59442;SDS011;45247;47.466;19.004;2022-11-03T01:36:46;12.75;;;5.53;;
59442;SDS011;45247;47.466;19.004;2022-11-03T01:39:15;11.13;;;5.13;;
59442;SDS011;45247;47.466;19.004;2022-11-03T01:41:46;14.50;;;4.53;;
59442;SDS011;45247;47.466;19.004;2022-11-03T01:44:26;14.77;;;4.95;;
59442;SDS011;45247;47.466;19.004;2022-11-03T01:46:58;14.82;;;5.25;;
59442;SDS011;45247;47.466;19.004;2022-11-03T01:49:31;12.98;;;4.18;;
59442;SDS011;45247;47.466;19.004;2022-11-03T01:52:04;6.57;;;4.13;;
59442;SDS011;45247;47.466;19.004;2022-11-03T01:54:36;10.23;;;3.92;;
59442;SDS011;45247;47.466;19.004;2022-11-03T01:57:06;7.95;;;4.00;;
59442;SDS011;45247;47.466;19.004;2022-11-03T01:59:39;9.05;;;3.83;;
59442;SDS011;45247;47.466;19.004;2022-11-03T02:02:08;10.07;;;4.05;;
59442;SDS011;45247;47.466;19.004;2022-11-03T02:04:36;9.85;;;3.75;;
59442;SDS011;45247;47.466;19.004;2022-11-03T02:07:07;9.30;;;4.35;;
59442;SDS011;45247;47.466;19.004;2022-11-03T02:09:50;6.55;;;3.95;;
59442;SDS011;45247;47.466;19.004;2022-11-03T02:12:19;17.98;;;5.03;;
59442;SDS011;45247;47.466;19.004;2022-11-03T02:14:50;9.43;;;3.80;;
59442;SDS011;45247;47.466;19.004;2022-11-03T02:17:21;10.52;;;4.00;;
59442;SDS011;45247;47.466;19.004;2022-11-03T02:19:53;7.28;;;3.88;;
59442;SDS011;45247;47.466;19.004;2022-11-03T02:25:35;11.65;;;3.72;;
59442;SDS011;45247;47.466;19.004;2022-11-03T02:28:07;9.90;;;3.90;;
59442;SDS011;45247;47.466;19.004;2022-11-03T02:30:37;9.00;;;3.70;;
59442;SDS011;45247;47.466;19.004;2022-11-03T02:33:12;13.00;;;4.40;;
59442;SDS011;45247;47.466;19.004;2022-11-03T02:35:50;9.85;;;3.85;;
59442;SDS011;45247;47.466;19.004;2022-11-03T02:38:21;10.70;;;3.60;;
59442;SDS011;45247;47.466;19.004;2022-11-03T02:40:55;8.07;;;3.53;;
59442;SDS011;45247;47.466;19.004;2022-11-03T02:43:27;5.95;;;3.33;;
59442;SDS011;45247;47.466;19.004;2022-11-03T02:45:56;6.38;;;2.97;;
59442;SDS011;45247;47.466;19.004;2022-11-03T02:48:24;10.43;;;3.78;;
59442;SDS011;45247;47.466;19.004;2022-11-03T02:50:53;8.45;;;3.13;;
59442;SDS011;45247;47.466;19.004;2022-11-03T02:53:21;9.15;;;4.00;;
59442;SDS011;45247;47.466;19.004;2022-11-03T02:55:50;11.27;;;4.07;;
59442;SDS011;45247;47.466;19.004;2022-11-03T02:58:27;9.27;;;3.67;;
59442;SDS011;45247;47.466;19.004;2022-11-03T03:01:02;12.07;;;5.38;;
59442;SDS011;45247;47.466;19.004;2022-11-03T03:03:41;15.25;;;4.43;;
59442;SDS011;45247;47.466;19.004;2022-11-03T03:08:46;8.70;;;3.72;;
59442;SDS011;45247;47.466;19.004;2022-11-03T03:11:18;8.48;;;3.80;;
59442;SDS011;45247;47.466;19.004;2022-11-03T03:14:06;10.52;;;4.00;;
59442;SDS011;45247;47.466;19.004;2022-11-03T03:16:49;10.82;;;4.30;;
59442;SDS011;45247;47.466;19.004;2022-11-03T03:19:25;9.57;;;4.25;;
59442;SDS011;45247;47.466;19.004;2022-11-03T03:22:07;11.35;;;3.75;;
59442;SDS011;45247;47.466;19.004;2022-11-03T03:24:42;5.72;;;3.35;;
59442;SDS011;45247;47.466;19.004;2022-11-03T03:27:15;8.00;;;3.20;;
59442;SDS011;45247;47.466;19.004;2022-11-03T03:29:49;9.40;;;3.45;;
59442;SDS011;45247;47.466;19.004;2022-11-03T03:32:23;7.10;;;2.60;;
59442;SDS011;45247;47.466;19.004;2022-11-03T03:34:54;10.95;;;3.92;;
59442;SDS011;45247;47.466;19.004;2022-11-03T03:37:25;7.35;;;3.50;;
59442;SDS011;45247;47.466;19.004;2022-11-03T03:39:56;7.07;;;3.55;;
59442;SDS011;45247;47.466;19.004;2022-11-03T03:42:29;8.73;;;4.18;;
59442;SDS011;45247;47.466;19.004;2022-11-03T03:45:00;18.85;;;4.53;;
59442;SDS011;45247;47.466;19.004;2022-11-03T03:47:31;11.93;;;4.97;;
59442;SDS011;45247;47.466;19.004;2022-11-03T03:50:00;14.32;;;5.65;;
59442;SDS011;45247;47.466;19.004;2022-11-03T03:52:29;15.45;;;5.50;;
59442;SDS011;45247;47.466;19.004;2022-11-03T03:54:59;8.88;;;5.10;;
59442;SDS011;45247;47.466;19.004;2022-11-03T03:57:29;9.98;;;5.43;;
59442;SDS011;45247;47.466;19.004;2022-11-03T03:59:58;13.85;;;5.65;;
59442;SDS011;45247;47.466;19.004;2022-11-03T04:02:28;11.40;;;5.60;;
59442;SDS011;45247;47.466;19.004;2022-11-03T04:04:56;12.15;;;5.55;;
59442;SDS011;45247;47.466;19.004;2022-11-03T04:07:25;11.85;;;6.07;;
59442;SDS011;45247;47.466;19.004;2022-11-03T04:10:10;12.30;;;5.70;;
59442;SDS011;45247;47.466;19.004;2022-11-03T04:12:39;13.30;;;5.70;;
59442;SDS011;45247;47.466;19.004;2022-11-03T04:15:25;11.75;;;5.63;;
59442;SDS011;45247;47.466;19.004;2022-11-03T04:18:12;9.73;;;5.70;;
59442;SDS011;45247;47.466;19.004;2022-11-03T04:20:58;13.23;;;6.07;;
59442;SDS011;45247;47.466;19.004;2022-11-03T04:23:43;15.05;;;5.65;;
59442;SDS011;45247;47.466;19.004;2022-11-03T04:26:12;11.43;;;5.55;;
59442;SDS011;45247;47.466;19.004;2022-11-03T04:28:41;12.00;;;5.07;;
59442;SDS011;45247;47.466;19.004;2022-11-03T04:31:09;9.48;;;5.45;;
59442;SDS011;45247;47.466;19.004;2022-11-03T04:33:41;11.20;;;6.22;;
59442;SDS011;45247;47.466;19.004;2022-11-03T04:36:17;11.70;;;6.40;;
59442;SDS011;45247;47.466;19.004;2022-11-03T04:38:46;11.13;;;5.70;;
59442;SDS011;45247;47.466;19.004;2022-11-03T04:41:16;10.05;;;5.43;;
59442;SDS011;45247;47.466;19.004;2022-11-03T04:43:46;8.25;;;5.00;;
59442;SDS011;45247;47.466;19.004;2022-11-03T04:46:17;12.35;;;4.57;;
59442;SDS011;45247;47.466;19.004;2022-11-03T04:48:53;11.55;;;4.82;;
59442;SDS011;45247;47.466;19.004;2022-11-03T04:51:27;11.05;;;4.53;;
59442;SDS011;45247;47.466;19.004;2022-11-03T04:54:00;10.13;;;4.72;;
59442;SDS011;45247;47.466;19.004;2022-11-03T04:58:59;6.97;;;3.95;;
59442;SDS011;45247;47.466;19.004;2022-11-03T05:01:27;7.88;;;4.00;;
59442;SDS011;45247;47.466;19.004;2022-11-03T05:03:58;8.35;;;4.38;;
59442;SDS011;45247;47.466;19.004;2022-11-03T05:06:26;11.85;;;5.88;;
59442;SDS011;45247;47.466;19.004;2022-11-03T05:08:57;12.93;;;5.95;;
59442;SDS011;45247;47.466;19.004;2022-11-03T05:11:28;8.60;;;5.03;;
59442;SDS011;45247;47.466;19.004;2022-11-03T05:13:59;11.35;;;5.55;;
59442;SDS011;45247;47.466;19.004;2022-11-03T05:16:29;13.80;;;6.57;;
59442;SDS011;45247;47.466;19.004;2022-11-03T05:18:59;10.30;;;5.40;;
59442;SDS011;45247;47.466;19.004;2022-11-03T05:21:27;11.10;;;5.38;;
59442;SDS011;45247;47.466;19.004;2022-11-03T05:23:56;19.02;;;5.75;;
59442;SDS011;45247;47.466;19.004;2022-11-03T05:26:30;12.25;;;5.53;;
59442;SDS011;45247;47.466;19.004;2022-11-03T05:29:01;11.93;;;4.97;;
59442;SDS011;45247;47.466;19.004;2022-11-03T05:31:31;14.35;;;5.75;;
59442;SDS011;45247;47.466;19.004;2022-11-03T05:37:06;14.13;;;5.72;;
59442;SDS011;45247;47.466;19.004;2022-11-03T05:39:41;11.27;;;5.70;;
59442;SDS011;45247;47.466;19.004;2022-11-03T05:42:15;13.23;;;5.63;;
59442;SDS011;45247;47.466;19.004;2022-11-03T05:44:55;16.90;;;6.07;;
59442;SDS011;45247;47.466;19.004;2022-11-03T05:47:25;15.50;;;6.50;;
59442;SDS011;45247;47.466;19.004;2022-11-03T05:50:01;12.43;;;6.32;;
59442;SDS011;45247;47.466;19.004;2022-11-03T05:55:15;17.98;;;6.65;;
59442;SDS011;45247;47.466;19.004;2022-11-03T05:57:51;18.27;;;6.47;;
59442;SDS011;45247;47.466;19.004;2022-11-03T06:00:27;14.55;;;6.43;;
59442;SDS011;45247;47.466;19.004;2022-11-03T06:02:58;15.23;;;7.07;;
59442;SDS011;45247;47.466;19.004;2022-11-03T06:05:28;20.30;;;7.40;;
59442;SDS011;45247;47.466;19.004;2022-11-03T06:08:01;15.43;;;7.30;;
59442;SDS011;45247;47.466;19.004;2022-11-03T06:10:40;13.63;;;7.00;;
59442;SDS011;45247;47.466;19.004;2022-11-03T06:13:12;13.02;;;6.60;;
59442;SDS011;45247;47.466;19.004;2022-11-03T06:15:44;10.73;;;6.63;;
59442;SDS011;45247;47.466;19.004;2022-11-03T06:18:15;12.10;;;6.72;;
59442;SDS011;45247;47.466;19.004;2022-11-03T06:20:49;14.55;;;7.05;;
59442;SDS011;45247;47.466;19.004;2022-11-03T06:23:19;17.35;;;7.72;;
59442;SDS011;45247;47.466;19.004;2022-11-03T06:25:48;17.88;;;7.68;;
59442;SDS011;45247;47.466;19.004;2022-11-03T06:28:20;16.17;;;7.75;;
59442;SDS011;45247;47.466;19.004;2022-11-03T06:30:51;10.27;;;6.97;;
59442;SDS011;45247;47.466;19.004;2022-11-03T06:33:22;15.15;;;7.00;;
59442;SDS011;45247;47.466;19.004;2022-11-03T06:35:55;15.00;;;7.03;;
59442;SDS011;45247;47.466;19.004;2022-11-03T06:38:26;15.27;;;7.13;;
59442;SDS011;45247;47.466;19.004;2022-11-03T06:40:56;13.45;;;6.57;;
59442;SDS011;45247;47.466;19.004;2022-11-03T06:43:26;16.80;;;6.88;;
59442;SDS011;45247;47.466;19.004;2022-11-03T06:46:01;16.17;;;9.00;;
59442;SDS011;45247;47.466;19.004;2022-11-03T06:48:39;24.17;;;8.95;;
59442;SDS011;45247;47.466;19.004;2022-11-03T06:51:13;22.38;;;9.48;;
59442;SDS011;45247;47.466;19.004;2022-11-03T06:53:42;18.70;;;9.15;;
59442;SDS011;45247;47.466;19.004;2022-11-03T06:56:11;18.60;;;8.45;;
59442;SDS011;45247;47.466;19.004;2022-11-03T06:58:42;25.30;;;11.73;;
59442;SDS011;45247;47.466;19.004;2022-11-03T07:01:14;24.98;;;12.32;;
59442;SDS011;45247;47.466;19.004;2022-11-03T07:03:43;23.42;;;12.32;;
59442;SDS011;45247;47.466;19.004;2022-11-03T07:06:18;26.30;;;13.32;;
59442;SDS011;45247;47.466;19.004;2022-11-03T07:08:50;26.67;;;13.23;;
59442;SDS011;45247;47.466;19.004;2022-11-03T07:11:23;27.80;;;13.25;;
59442;SDS011;45247;47.466;19.004;2022-11-03T07:13:54;37.78;;;14.57;;
59442;SDS011;45247;47.466;19.004;2022-11-03T07:16:25;25.30;;;13.77;;
59442;SDS011;45247;47.466;19.004;2022-11-03T07:18:57;24.13;;;12.65;;
59442;SDS011;45247;47.466;19.004;2022-11-03T07:21:37;33.28;;;14.68;;
59442;SDS011;45247;47.466;19.004;2022-11-03T07:24:12;30.85;;;15.60;;
59442;SDS011;45247;47.466;19.004;2022-11-03T07:26:44;30.08;;;13.82;;
59442;SDS011;45247;47.466;19.004;2022-11-03T07:29:15;30.02;;;13.80;;
59442;SDS011;45247;47.466;19.004;2022-11-03T07:31:47;29.63;;;14.25;;
59442;SDS011;45247;47.466;19.004;2022-11-03T07:34:18;34.75;;;15.15;;
59442;SDS011;45247;47.466;19.004;2022-11-03T07:36:49;32.97;;;15.90;;
59442;SDS011;45247;47.466;19.004;2022-11-03T07:39:21;32.10;;;15.90;;
59442;SDS011;45247;47.466;19.004;2022-11-03T07:41:49;32.90;;;15.32;;
59442;SDS011;45247;47.466;19.004;2022-11-03T07:44:18;29.02;;;15.45;;
59442;SDS011;45247;47.466;19.004;2022-11-03T07:46:47;32.17;;;15.90;;
59442;SDS011;45247;47.466;19.004;2022-11-03T07:49:19;32.55;;;16.00;;
59442;SDS011;45247;47.466;19.004;2022-11-03T07:51:53;38.80;;;16.48;;
59442;SDS011;45247;47.466;19.004;2022-11-03T07:54:23;39.22;;;19.48;;
59442;SDS011;45247;47.466;19.004;2022-11-03T07:56:55;36.28;;;17.60;;
59442;SDS011;45247;47.466;19.004;2022-11-03T07:59:25;44.17;;;18.13;;
59442;SDS011;45247;47.466;19.004;2022-11-03T08:01:56;48.03;;;19.50;;
59442;SDS011;45247;47.466;19.004;2022-11-03T08:04:26;42.28;;;20.77;;
59442;SDS011;45247;47.466;19.004;2022-11-03T08:06:57;50.08;;;21.58;;
59442;SDS011;45247;47.466;19.004;2022-11-03T08:09:25;46.15;;;20.55;;
59442;SDS011;45247;47.466;19.004;2022-11-03T08:11:53;38.03;;;19.13;;
59442;SDS011;45247;47.466;19.004;2022-11-03T08:14:21;47.33;;;22.30;;
59442;SDS011;45247;47.466;19.004;2022-11-03T08:16:49;52.15;;;21.27;;
59442;SDS011;45247;47.466;19.004;2022-11-03T08:19:17;45.60;;;20.95;;
59442;SDS011;45247;47.466;19.004;2022-11-03T08:21:45;42.45;;;19.88;;
59442;SDS011;45247;47.466;19.004;2022-11-03T08:24:15;49.78;;;20.60;;
59442;SDS011;45247;47.466;19.004;2022-11-03T08:26:43;43.40;;;19.58;;
59442;SDS011;45247;47.466;19.004;2022-11-03T08:29:11;43.30;;;21.33;;
59442;SDS011;45247;47.466;19.004;2022-11-03T08:31:39;48.42;;;21.17;;
59442;SDS011;45247;47.466;19.004;2022-11-03T08:34:07;51.85;;;22.08;;
59442;SDS011;45247;47.466;19.004;2022-11-03T08:36:35;45.95;;;21.60;;
59442;SDS011;45247;47.466;19.004;2022-11-03T08:39:03;47.33;;;20.80;;
59442;SDS011;45247;47.466;19.004;2022-11-03T08:41:33;47.53;;;21.48;;
59442;SDS011;45247;47.466;19.004;2022-11-03T08:44:01;41.65;;;21.88;;
59442;SDS011;45247;47.466;19.004;2022-11-03T08:46:29;49.50;;;21.50;;
59442;SDS011;45247;47.466;19.004;2022-11-03T08:48:57;44.70;;;21.23;;
59442;SDS011;45247;47.466;19.004;2022-11-03T08:51:25;50.47;;;22.80;;
59442;SDS011;45247;47.466;19.004;2022-11-03T08:53:53;52.40;;;22.50;;
59442;SDS011;45247;47.466;19.004;2022-11-03T08:56:21;53.53;;;22.33;;
59442;SDS011;45247;47.466;19.004;2022-11-03T08:58:51;48.45;;;22.48;;
59442;SDS011;45247;47.466;19.004;2022-11-03T09:01:19;47.75;;;21.20;;
59442;SDS011;45247;47.466;19.004;2022-11-03T09:03:47;47.67;;;21.98;;
59442;SDS011;45247;47.466;19.004;2022-11-03T09:06:15;46.78;;;21.88;;
59442;SDS011;45247;47.466;19.004;2022-11-03T09:08:43;43.53;;;20.88;;
59442;SDS011;45247;47.466;19.004;2022-11-03T09:11:32;47.58;;;21.33;;
59442;SDS011;45247;47.466;19.004;2022-11-03T09:14:06;46.97;;;21.73;;
59442;SDS011;45247;47.466;19.004;2022-11-03T09:16:34;50.75;;;21.95;;
59442;SDS011;45247;47.466;19.004;2022-11-03T09:19:03;54.20;;;23.83;;
59442;SDS011;45247;47.466;19.004;2022-11-03T09:21:31;50.40;;;24.55;;
59442;SDS011;45247;47.466;19.004;2022-11-03T09:23:59;48.90;;;23.45;;
59442;SDS011;45247;47.466;19.004;2022-11-03T09:26:27;48.47;;;22.70;;
59442;SDS011;45247;47.466;19.004;2022-11-03T09:28:55;46.08;;;22.33;;
59442;SDS011;45247;47.466;19.004;2022-11-03T09:31:25;46.22;;;22.80;;
59442;SDS011;45247;47.466;19.004;2022-11-03T09:33:54;61.47;;;25.38;;
59442;SDS011;45247;47.466;19.004;2022-11-03T09:36:22;64.63;;;26.70;;
59442;SDS011;45247;47.466;19.004;2022-11-03T09:38:50;53.83;;;23.77;;
59442;SDS011;45247;47.466;19.004;2022-11-03T09:41:18;56.55;;;24.52;;
59442;SDS011;45247;47.466;19.004;2022-11-03T09:44:07;55.17;;;23.60;;
59442;SDS011;45247;47.466;19.004;2022-11-03T09:46:37;55.47;;;24.13;;
59442;SDS011;45247;47.466;19.004;2022-11-03T09:49:05;50.58;;;24.17;;
59442;SDS011;45247;47.466;19.004;2022-11-03T09:51:34;49.15;;;23.60;;
59442;SDS011;45247;47.466;19.004;2022-11-03T09:54:03;50.53;;;24.10;;
59442;SDS011;45247;47.466;19.004;2022-11-03T09:56:34;57.35;;;24.83;;
59442;SDS011;45247;47.466;19.004;2022-11-03T09:59:08;54.33;;;24.80;;
59442;SDS011;45247;47.466;19.004;2022-11-03T10:01:42;54.03;;;22.88;;
59442;SDS011;45247;47.466;19.004;2022-11-03T10:04:14;58.45;;;24.70;;
59442;SDS011;45247;47.466;19.004;2022-11-03T10:06:43;51.20;;;22.77;;
59442;SDS011;45247;47.466;19.004;2022-11-03T10:09:13;48.65;;;22.80;;
59442;SDS011;45247;47.466;19.004;2022-11-03T10:11:43;56.17;;;23.73;;
59442;SDS011;45247;47.466;19.004;2022-11-03T10:14:13;52.33;;;22.83;;
59442;SDS011;45247;47.466;19.004;2022-11-03T10:16:46;51.95;;;22.98;;
59442;SDS011;45247;47.466;19.004;2022-11-03T10:19:19;50.45;;;22.98;;
59442;SDS011;45247;47.466;19.004;2022-11-03T10:21:47;57.60;;;24.25;;
59442;SDS011;45247;47.466;19.004;2022-11-03T10:24:15;45.10;;;22.48;;
59442;SDS011;45247;47.466;19.004;2022-11-03T10:26:44;53.85;;;24.40;;
59442;SDS011;45247;47.466;19.004;2022-11-03T10:29:15;57.75;;;25.52;;
59442;SDS011;45247;47.466;19.004;2022-11-03T10:31:50;56.05;;;24.02;;
59442;SDS011;45247;47.466;19.004;2022-11-03T10:34:23;52.35;;;23.45;;
59442;SDS011;45247;47.466;19.004;2022-11-03T10:39:42;57.40;;;24.95;;
59442;SDS011;45247;47.466;19.004;2022-11-03T10:42:18;58.47;;;24.30;;
59442;SDS011;45247;47.466;19.004;2022-11-03T10:44:48;54.38;;;24.08;;
59442;SDS011;45247;47.466;19.004;2022-11-03T10:47:23;57.42;;;24.17;;
59442;SDS011;45247;47.466;19.004;2022-11-03T10:52:29;55.80;;;23.67;;
59442;SDS011;45247;47.466;19.004;2022-11-03T10:54:57;52.97;;;23.85;;
59442;SDS011;45247;47.466;19.004;2022-11-03T10:57:26;50.28;;;22.77;;
59442;SDS011;45247;47.466;19.004;2022-11-03T10:59:55;59.03;;;26.27;;
59442;SDS011;45247;47.466;19.004;2022-11-03T11:02:25;59.33;;;24.48;;
59442;SDS011;45247;47.466;19.004;2022-11-03T11:04:58;50.03;;;24.95;;
59442;SDS011;45247;47.466;19.004;2022-11-03T11:07:29;52.38;;;25.60;;
59442;SDS011;45247;47.466;19.004;2022-11-03T11:12:32;66.03;;;25.25;;
59442;SDS011;45247;47.466;19.004;2022-11-03T11:15:02;54.65;;;24.73;;
59442;SDS011;45247;47.466;19.004;2022-11-03T11:17:53;59.65;;;26.25;;
59442;SDS011;45247;47.466;19.004;2022-11-03T11:38:51;60.65;;;24.33;;
59442;SDS011;45247;47.466;19.004;2022-11-03T11:41:21;60.17;;;26.15;;
59442;SDS011;45247;47.466;19.004;2022-11-03T11:47:23;60.08;;;26.17;;
59442;SDS011;45247;47.466;19.004;2022-11-03T11:50:23;60.30;;;26.40;;
59442;SDS011;45247;47.466;19.004;2022-11-03T11:52:55;65.18;;;26.73;;
59442;SDS011;45247;47.466;19.004;2022-11-03T11:55:37;59.72;;;27.38;;
59442;SDS011;45247;47.466;19.004;2022-11-03T11:58:24;59.78;;;26.77;;
59442;SDS011;45247;47.466;19.004;2022-11-03T12:00:57;68.68;;;27.35;;
59442;SDS011;45247;47.466;19.004;2022-11-03T12:03:28;59.55;;;24.25;;
59442;SDS011;45247;47.466;19.004;2022-11-03T12:06:01;59.88;;;27.63;;
59442;SDS011;45247;47.466;19.004;2022-11-03T12:08:29;58.40;;;25.27;;
59442;SDS011;45247;47.466;19.004;2022-11-03T12:10:59;62.80;;;28.45;;
59442;SDS011;45247;47.466;19.004;2022-11-03T12:16:28;66.38;;;27.52;;
59442;SDS011;45247;47.466;19.004;2022-11-03T12:22:07;64.00;;;25.75;;
59442;SDS011;45247;47.466;19.004;2022-11-03T12:24:46;62.90;;;27.50;;
59442;SDS011;45247;47.466;19.004;2022-11-03T12:27:17;63.72;;;26.25;;
59442;SDS011;45247;47.466;19.004;2022-11-03T12:30:07;66.28;;;27.88;;
59442;SDS011;45247;47.466;19.004;2022-11-03T12:32:39;65.57;;;28.17;;
59442;SDS011;45247;47.466;19.004;2022-11-03T12:35:08;67.03;;;27.85;;
59442;SDS011;45247;47.466;19.004;2022-11-03T12:37:39;58.35;;;26.05;;
59442;SDS011;45247;47.466;19.004;2022-11-03T12:40:09;67.80;;;27.75;;
59442;SDS011;45247;47.466;19.004;2022-11-03T12:42:39;66.43;;;27.80;;
59442;SDS011;45247;47.466;19.004;2022-11-03T12:45:07;67.13;;;27.83;;
59442;SDS011;45247;47.466;19.004;2022-11-03T12:47:36;70.53;;;27.27;;
59442;SDS011;45247;47.466;19.004;2022-11-03T12:50:04;60.45;;;27.83;;
59442;SDS011;45247;47.466;19.004;2022-11-03T12:52:33;59.08;;;26.38;;
59442;SDS011;45247;47.466;19.004;2022-11-03T12:55:03;77.10;;;28.40;;
59442;SDS011;45247;47.466;19.004;2022-11-03T12:57:34;71.22;;;29.52;;
59442;SDS011;45247;47.466;19.004;2022-11-03T13:00:05;72.18;;;28.80;;
59442;SDS011;45247;47.466;19.004;2022-11-03T13:02:34;67.40;;;29.40;;
59442;SDS011;45247;47.466;19.004;2022-11-03T13:05:04;71.50;;;31.33;;
59442;SDS011;45247;47.466;19.004;2022-11-03T13:07:33;81.10;;;32.78;;
59442;SDS011;45247;47.466;19.004;2022-11-03T13:10:02;84.88;;;33.58;;
59442;SDS011;45247;47.466;19.004;2022-11-03T13:12:31;77.25;;;31.42;;
59442;SDS011;45247;47.466;19.004;2022-11-03T13:15:01;70.35;;;30.60;;
59442;SDS011;45247;47.466;19.004;2022-11-03T13:17:31;84.47;;;31.02;;
59442;SDS011;45247;47.466;19.004;2022-11-03T13:20:19;72.65;;;30.23;;
59442;SDS011;45247;47.466;19.004;2022-11-03T13:22:47;81.22;;;30.70;;
59442;SDS011;45247;47.466;19.004;2022-11-03T13:25:17;78.65;;;31.38;;
59442;SDS011;45247;47.466;19.004;2022-11-03T13:27:45;84.22;;;31.08;;
59442;SDS011;45247;47.466;19.004;2022-11-03T13:30:19;81.35;;;31.15;;
59442;SDS011;45247;47.466;19.004;2022-11-03T13:32:48;74.68;;;30.48;;
59442;SDS011;45247;47.466;19.004;2022-11-03T13:35:16;75.93;;;28.02;;
59442;SDS011;45247;47.466;19.004;2022-11-03T13:37:45;72.45;;;30.65;;
59442;SDS011;45247;47.466;19.004;2022-11-03T13:40:13;78.88;;;31.23;;
59442;SDS011;45247;47.466;19.004;2022-11-03T13:43:03;69.88;;;29.30;;
59442;SDS011;45247;47.466;19.004;2022-11-03T13:45:32;62.75;;;27.75;;
59442;SDS011;45247;47.466;19.004;2022-11-03T13:48:00;55.13;;;24.92;;
59442;SDS011;45247;47.466;19.004;2022-11-03T13:50:48;57.47;;;26.70;;
59442;SDS011;45247;47.466;19.004;2022-11-03T13:53:19;70.38;;;29.45;;
59442;SDS011;45247;47.466;19.004;2022-11-03T13:56:07;60.85;;;28.30;;
59442;SDS011;45247;47.466;19.004;2022-11-03T13:58:43;62.17;;;28.10;;
59442;SDS011;45247;47.466;19.004;2022-11-03T14:01:31;71.18;;;30.13;;
59442;SDS011;45247;47.466;19.004;2022-11-03T14:04:00;65.32;;;27.63;;
59442;SDS011;45247;47.466;19.004;2022-11-03T14:06:51;64.32;;;27.70;;
59442;SDS011;45247;47.466;19.004;2022-11-03T14:09:19;63.05;;;28.25;;
59442;SDS011;45247;47.466;19.004;2022-11-03T14:11:47;55.03;;;25.90;;
59442;SDS011;45247;47.466;19.004;2022-11-03T14:14:35;64.57;;;26.73;;
59442;SDS011;45247;47.466;19.004;2022-11-03T14:17:04;54.58;;;26.75;;
59442;SDS011;45247;47.466;19.004;2022-11-03T14:19:32;56.97;;;26.20;;
59442;SDS011;45247;47.466;19.004;2022-11-03T14:22:09;63.50;;;27.17;;
59442;SDS011;45247;47.466;19.004;2022-11-03T14:24:37;61.50;;;27.25;;
59442;SDS011;45247;47.466;19.004;2022-11-03T14:27:05;60.35;;;28.20;;
59442;SDS011;45247;47.466;19.004;2022-11-03T14:29:34;50.03;;;25.30;;
59442;SDS011;45247;47.466;19.004;2022-11-03T14:32:03;56.80;;;25.60;;
59442;SDS011;45247;47.466;19.004;2022-11-03T14:34:31;51.78;;;25.50;;
59442;SDS011;45247;47.466;19.004;2022-11-03T14:37:02;53.13;;;24.98;;
59442;SDS011;45247;47.466;19.004;2022-11-03T14:39:31;48.13;;;25.02;;
59442;SDS011;45247;47.466;19.004;2022-11-03T14:41:59;52.58;;;25.20;;
59442;SDS011;45247;47.466;19.004;2022-11-03T14:44:29;55.28;;;24.90;;
59442;SDS011;45247;47.466;19.004;2022-11-03T14:46:59;57.08;;;27.48;;
59442;SDS011;45247;47.466;19.004;2022-11-03T14:49:28;50.97;;;24.73;;
59442;SDS011;45247;47.466;19.004;2022-11-03T14:51:56;50.63;;;24.27;;
59442;SDS011;45247;47.466;19.004;2022-11-03T14:54:27;59.28;;;25.20;;
59442;SDS011;45247;47.466;19.004;2022-11-03T14:56:56;51.30;;;25.10;;
59442;SDS011;45247;47.466;19.004;2022-11-03T14:59:24;52.78;;;25.48;;
59442;SDS011;45247;47.466;19.004;2022-11-03T15:01:53;58.63;;;28.15;;
59442;SDS011;45247;47.466;19.004;2022-11-03T15:04:23;54.45;;;27.83;;
59442;SDS011;45247;47.466;19.004;2022-11-03T15:06:51;60.53;;;28.75;;
59442;SDS011;45247;47.466;19.004;2022-11-03T15:09:19;57.90;;;28.17;;
59442;SDS011;45247;47.466;19.004;2022-11-03T15:11:48;56.13;;;27.83;;
59442;SDS011;45247;47.466;19.004;2022-11-03T15:14:16;53.22;;;26.50;;
59442;SDS011;45247;47.466;19.004;2022-11-03T15:16:44;59.80;;;28.58;;
59442;SDS011;45247;47.466;19.004;2022-11-03T15:19:12;64.18;;;31.40;;
59442;SDS011;45247;47.466;19.004;2022-11-03T15:21:42;70.25;;;32.40;;
59442;SDS011;45247;47.466;19.004;2022-11-03T15:24:10;59.22;;;29.83;;
59442;SDS011;45247;47.466;19.004;2022-11-03T15:26:58;58.33;;;29.38;;
59442;SDS011;45247;47.466;19.004;2022-11-03T15:29:26;56.70;;;27.33;;
59442;SDS011;45247;47.466;19.004;2022-11-03T15:31:54;48.35;;;26.33;;